Time;durP1;ratioP1;P1;durP2;ratioP2;P2;SDS_P1;SDS_P2;PMS_P1;PMS_P2;Temp;Humidity;BMP_temperature;BMP_pressure;BME280_temperature;BME280_humidity;BME280_pressure;Samples;Min_cycle;Max_cycle;Signal;HPM_P1;HPM_P2
2022/01/25 00:08:27;;;;;;;106.43;47.45;;;;;;;4.35;100.00;103457.88;5016005;28;20044;-71
2022/01/25 00:27:35;;;;;;;100.65;46.33;;;;;;;4.08;100.00;103463.06;5014834;28;20041;-71
2022/01/25 00:30:22;;;;;;;105.10;47.70;;;;;;;3.79;100.00;103458.69;4995976;28;20603;-71
2022/01/25 00:32:45;;;;;;;98.32;47.95;;;;;;;3.94;100.00;103458.59;5014855;28;20123;-71
2022/01/25 00:35:10;;;;;;;105.80;47.08;;;;;;;3.82;100.00;103461.00;5015247;28;20045;-71
2022/01/25 00:37:36;;;;;;;108.72;49.63;;;;;;;3.96;100.00;103461.94;5014543;28;20053;-71
2022/01/25 00:40:03;;;;;;;108.50;48.58;;;;;;;3.92;100.00;103463.34;5014785;28;20291;-71
2022/01/25 00:42:29;;;;;;;105.55;48.65;;;;;;;3.85;100.00;103457.91;5015522;28;20147;-71
2022/01/25 00:44:55;;;;;;;113.10;48.95;;;;;;;3.79;100.00;103463.25;5014486;28;20049;-71
2022/01/25 00:47:21;;;;;;;113.32;50.45;;;;;;;3.77;100.00;103470.69;5015142;28;20405;-71
2022/01/25 00:49:51;;;;;;;107.38;48.95;;;;;;;3.93;100.00;103454.25;4995852;28;20064;-71
2022/01/25 00:55:03;;;;;;;109.65;49.22;;;;;;;3.99;100.00;103453.44;4982540;28;20494;-71
2022/01/25 00:57:29;;;;;;;113.55;49.10;;;;;;;4.12;100.00;103451.88;5014014;28;20164;-71
2022/01/25 00:59:54;;;;;;;106.50;47.47;;;;;;;3.99;100.00;103448.06;5013608;28;20076;-71
2022/01/25 01:02:20;;;;;;;112.57;47.08;;;;;;;3.91;100.00;103448.19;5014032;28;20041;-71
2022/01/25 01:04:46;;;;;;;113.93;49.67;;;;;;;4.01;100.00;103443.28;4996724;28;20325;-71
2022/01/25 01:07:14;;;;;;;107.80;48.10;;;;;;;4.03;100.00;103452.03;5014221;28;20037;-71
2022/01/25 01:09:42;;;;;;;105.25;47.22;;;;;;;3.91;100.00;103442.78;5014541;28;20046;-71
2022/01/25 01:12:18;;;;;;;121.13;48.92;;;;;;;3.96;100.00;103443.03;5014575;28;20353;-71
2022/01/25 01:15:10;;;;;;;103.85;45.58;;;;;;;3.78;100.00;103439.97;5014609;28;20033;-71
2022/01/25 01:34:18;;;;;;;111.65;48.42;;;;;;;3.71;100.00;103460.66;5013515;28;20127;-71
2022/01/25 01:40:17;;;;;;;111.90;47.97;;;;;;;3.76;100.00;103444.75;5015127;28;20053;-71
2022/01/25 01:47:49;;;;;;;107.18;44.83;;;;;;;3.76;100.00;103442.88;4994533;28;20045;-71
2022/01/25 01:50:26;;;;;;;102.28;45.22;;;;;;;3.72;100.00;103446.13;5013041;28;20120;-71
2022/01/25 01:52:52;;;;;;;96.57;42.83;;;;;;;3.74;100.00;103444.09;5013992;28;20068;-71
2022/01/25 01:55:18;;;;;;;92.43;41.55;;;;;;;3.93;100.00;103443.44;5013503;28;20033;-71
2022/01/25 01:57:46;;;;;;;99.70;42.65;;;;;;;3.86;100.00;103446.06;5013366;28;20072;-71
2022/01/25 02:00:12;;;;;;;112.30;46.40;;;;;;;3.67;100.00;103446.75;5011632;28;20041;-71
2022/01/25 02:02:38;;;;;;;112.10;47.17;;;;;;;3.95;100.00;103443.22;5013049;28;20400;-71
2022/01/25 02:05:04;;;;;;;103.53;45.33;;;;;;;3.93;100.00;103442.59;5013566;28;20120;-71
2022/01/25 02:07:30;;;;;;;103.85;45.05;;;;;;;3.85;100.00;103441.69;5013525;28;20468;-71
2022/01/25 02:09:55;;;;;;;99.72;44.00;;;;;;;3.84;100.00;103440.03;5013430;28;20211;-71
2022/01/25 02:12:21;;;;;;;100.65;45.38;;;;;;;3.87;100.00;103430.72;4994764;28;20053;-71
2022/01/25 02:14:47;;;;;;;103.22;45.22;;;;;;;3.87;100.00;103438.81;5013409;28;20056;-71
2022/01/25 02:22:56;;;;;;;98.68;43.78;;;;;;;3.98;100.00;103440.97;5013676;28;20052;-71
2022/01/25 02:25:22;;;;;;;100.25;43.40;;;;;;;3.89;100.00;103446.72;5014445;28;20029;-71
2022/01/25 02:27:48;;;;;;;91.47;42.00;;;;;;;3.89;100.00;103435.91;4995449;28;20187;-71
2022/01/25 02:30:13;;;;;;;98.32;43.03;;;;;;;3.78;100.00;103440.81;5013542;28;20145;-71
2022/01/25 02:32:39;;;;;;;100.57;45.58;;;;;;;3.91;100.00;103440.09;4978596;28;20340;-71
2022/01/25 02:35:05;;;;;;;93.68;42.20;;;;;;;4.02;100.00;103442.25;5013455;28;20376;-71
2022/01/25 02:37:31;;;;;;;100.70;44.60;;;;;;;4.12;100.00;103435.69;4995438;28;20056;-71
2022/01/25 02:39:57;;;;;;;98.10;42.67;;;;;;;4.08;100.00;103427.16;5013795;28;20058;-71
2022/01/25 02:42:23;;;;;;;93.78;42.08;;;;;;;4.04;100.00;103434.81;4996234;28;20442;-70
2022/01/25 02:44:49;;;;;;;98.50;43.05;;;;;;;4.08;100.00;103435.25;4996191;28;20041;-71
2022/01/25 02:49:59;;;;;;;85.90;40.17;;;;;;;3.61;100.00;103434.84;5014384;28;20119;-71
2022/01/25 02:52:25;;;;;;;86.43;38.35;;;;;;;3.66;100.00;103430.72;4997670;28;20046;-71
2022/01/25 02:54:51;;;;;;;87.32;39.38;;;;;;;3.75;100.00;103433.13;4999860;28;20098;-71
2022/01/25 02:57:17;;;;;;;81.90;38.30;;;;;;;3.74;100.00;103414.41;5017945;28;20050;-71
2022/01/25 02:59:42;;;;;;;84.63;39.65;;;;;;;3.77;100.00;103422.13;4999467;28;20041;-71
2022/01/25 03:02:08;;;;;;;94.40;42.75;;;;;;;3.93;100.00;103421.00;5017721;28;20124;-71
2022/01/25 03:04:34;;;;;;;109.15;46.58;;;;;;;3.86;100.00;103415.53;5017243;28;20411;-71
2022/01/25 03:06:59;;;;;;;103.65;45.42;;;;;;;3.90;100.00;103416.84;5017604;28;20034;-71
2022/01/25 03:09:24;;;;;;;103.38;43.58;;;;;;;3.94;100.00;103414.56;5017682;28;20505;-71
2022/01/25 03:11:53;;;;;;;99.60;43.67;;;;;;;4.03;100.00;103416.91;5017737;28;20041;-70
2022/01/25 03:14:21;;;;;;;97.43;44.00;;;;;;;3.85;100.00;103413.88;5018415;28;20049;-71
2022/01/25 03:17:04;;;;;;;102.97;45.35;;;;;;;4.02;100.00;103420.66;5018711;28;20048;-71
2022/01/25 03:22:18;;;;;;;101.63;43.22;;;;;;;3.83;100.00;103410.53;5026123;28;19925;-70
2022/01/25 03:24:45;;;;;;;103.15;45.42;;;;;;;4.03;100.00;103405.28;5007393;28;20041;-70
2022/01/25 03:27:10;;;;;;;103.05;44.97;;;;;;;3.90;100.00;103410.56;5022384;28;20141;-70
2022/01/25 03:29:36;;;;;;;107.50;46.42;;;;;;;3.91;100.00;103412.28;5001082;28;20557;-71
2022/01/25 03:32:02;;;;;;;107.50;44.92;;;;;;;4.04;100.00;103409.66;5018488;28;20555;-71
2022/01/25 03:34:27;;;;;;;103.00;46.55;;;;;;;3.97;100.00;103406.06;5001494;28;20056;-71
2022/01/25 03:36:52;;;;;;;108.43;47.45;;;;;;;3.92;100.00;103406.66;5018753;28;20037;-70
2022/01/25 03:39:18;;;;;;;107.40;46.05;;;;;;;3.85;100.00;103409.31;5017665;28;20179;-71
2022/01/25 03:41:43;;;;;;;109.93;46.05;;;;;;;3.99;100.00;103402.16;5017406;28;20565;-71
2022/01/25 03:44:09;;;;;;;114.63;48.92;;;;;;;3.98;100.00;103403.16;5016507;28;20797;-71
2022/01/25 03:51:51;;;;;;;108.78;46.47;;;;;;;3.92;100.00;103398.56;5017166;28;20159;-71
2022/01/25 03:54:17;;;;;;;112.72;46.80;;;;;;;3.98;100.00;103400.47;5016531;28;20076;-71
2022/01/25 03:56:43;;;;;;;111.28;48.42;;;;;;;3.89;100.00;103390.03;5017262;28;20038;-70
2022/01/25 03:59:08;;;;;;;115.40;47.13;;;;;;;3.83;100.00;103394.34;5016157;28;20072;-70
2022/01/25 04:01:35;;;;;;;114.35;47.40;;;;;;;3.89;100.00;103388.16;5017506;28;20071;-71
2022/01/25 04:04:05;;;;;;;116.55;47.22;;;;;;;3.92;100.00;103400.44;5016127;28;20159;-71
2022/01/25 04:06:32;;;;;;;109.40;45.17;;;;;;;3.99;100.00;103396.75;5000303;28;20046;-71
2022/01/25 04:09:00;;;;;;;114.53;46.60;;;;;;;4.05;100.00;103393.28;4999253;28;20132;-71
2022/01/25 04:11:26;;;;;;;114.25;47.92;;;;;;;3.99;100.00;103388.66;5016090;28;20064;-71
2022/01/25 04:13:53;;;;;;;118.35;48.60;;;;;;;3.98;100.00;103392.38;5015566;28;20048;-71
2022/01/25 04:16:24;;;;;;;119.28;48.72;;;;;;;3.95;100.00;103395.47;5015911;28;20144;-71
2022/01/25 04:26:47;;;;;;;116.82;49.28;;;;;;;3.93;100.00;103389.44;5016136;28;20057;-71
2022/01/25 04:29:13;;;;;;;120.55;48.78;;;;;;;3.82;100.00;103389.97;5015271;28;20045;-71
2022/01/25 04:31:39;;;;;;;120.75;49.53;;;;;;;3.83;100.00;103383.53;5015107;28;20063;-71
2022/01/25 04:34:24;;;;;;;110.80;45.38;;;;;;;3.59;100.00;103388.34;5015332;28;20033;-71
2022/01/25 04:53:20;;;;;;;117.90;48.37;;;;;;;3.98;100.00;103384.28;4996466;28;20775;-71
2022/01/25 04:55:54;;;;;;;111.30;45.88;;;;;;;4.09;100.00;103378.31;5013797;28;20468;-70
2022/01/25 04:58:31;;;;;;;113.93;47.05;;;;;;;4.02;100.00;103385.56;4994000;28;20045;-71
2022/01/25 05:00:57;;;;;;;117.82;47.75;;;;;;;3.81;100.00;103381.06;5014150;28;20172;-71
2022/01/25 05:03:27;;;;;;;116.18;48.28;;;;;;;3.88;100.00;103381.09;5013605;28;20046;-71
2022/01/25 05:06:27;;;;;;;116.85;48.72;;;;;;;4.03;100.00;103383.69;5013831;28;20041;-71
2022/01/25 05:08:50;;;;;;;116.22;47.70;;;;;;;4.07;100.00;103391.22;5011865;28;20060;-71
2022/01/25 05:11:25;;;;;;;116.30;48.00;;;;;;;3.94;100.00;103390.28;5015402;28;20455;-71
2022/01/25 05:14:12;;;;;;;116.85;47.42;;;;;;;3.98;100.00;103394.25;4996842;28;20477;-71
2022/01/25 05:16:47;;;;;;;106.70;44.33;;;;;;;3.94;100.00;103396.50;5013679;28;20068;-71
2022/01/25 05:24:26;;;;;;;113.55;46.38;;;;;;;3.97;100.00;103389.88;5013158;28;20535;-71
2022/01/25 05:26:52;;;;;;;118.75;47.65;;;;;;;3.84;100.00;103390.63;5013594;28;20033;-71
2022/01/25 05:29:17;;;;;;;131.23;52.80;;;;;;;3.90;100.00;103395.25;5013993;28;20048;-71
2022/01/25 05:31:43;;;;;;;125.35;51.15;;;;;;;4.05;100.00;103398.66;5014410;28;20425;-71
2022/01/25 05:34:08;;;;;;;122.88;49.05;;;;;;;4.19;100.00;103390.63;5014311;28;20484;-71
2022/01/25 05:36:38;;;;;;;119.82;49.42;;;;;;;4.06;100.00;103400.31;5014569;28;20414;-71
2022/01/25 05:39:25;;;;;;;117.97;49.28;;;;;;;3.93;100.00;103397.53;5013269;28;20607;-71
2022/01/25 05:42:15;;;;;;;117.90;47.95;;;;;;;3.83;100.00;103395.16;4994915;28;20457;-71
2022/01/25 05:44:54;;;;;;;120.25;47.53;;;;;;;3.83;100.00;103400.56;5013211;28;20046;-71
2022/01/25 05:47:25;;;;;;;114.43;47.92;;;;;;;3.73;100.00;103393.84;5013843;28;20103;-71
2022/01/25 05:49:50;;;;;;;115.25;48.85;;;;;;;3.82;100.00;103392.69;4979619;28;20152;-71
2022/01/25 05:52:16;;;;;;;122.50;49.20;;;;;;;3.51;100.00;103393.84;5013725;28;20497;-71
2022/01/25 05:54:41;;;;;;;125.95;51.65;;;;;;;3.73;100.00;103393.84;5012074;28;20452;-71
2022/01/25 05:57:07;;;;;;;126.68;50.03;;;;;;;3.71;100.00;103391.34;5011762;28;20055;-71
2022/01/25 05:59:33;;;;;;;123.82;49.05;;;;;;;3.63;100.00;103383.38;5013067;28;20045;-71
2022/01/25 06:01:58;;;;;;;121.50;48.92;;;;;;;3.62;100.00;103377.16;5013738;28;20041;-71
2022/01/25 06:04:24;;;;;;;119.93;48.03;;;;;;;3.63;100.00;103384.22;5012850;28;20068;-71
2022/01/25 06:06:50;;;;;;;123.28;49.53;;;;;;;3.57;100.00;103382.28;5011949;28;20037;-71
2022/01/25 06:09:16;;;;;;;127.35;50.63;;;;;;;3.48;100.00;103386.16;4993269;28;20042;-71
2022/01/25 06:11:41;;;;;;;113.30;45.95;;;;;;;3.72;100.00;103384.91;5012671;28;20056;-71
2022/01/25 06:14:07;;;;;;;118.70;49.58;;;;;;;3.84;100.00;103385.22;5012012;28;20056;-71
2022/01/25 06:16:33;;;;;;;125.70;49.58;;;;;;;3.81;100.00;103385.59;5011978;28;20048;-71
2022/01/25 06:18:59;;;;;;;117.35;47.53;;;;;;;3.80;100.00;103386.63;5012848;28;20041;-71
2022/01/25 06:21:24;;;;;;;123.03;47.63;;;;;;;3.95;100.00;103390.06;5011579;28;20044;-71
2022/01/25 06:23:50;;;;;;;121.90;50.80;;;;;;;4.01;100.00;103383.88;5012325;28;20321;-71
2022/01/25 06:26:17;;;;;;;115.90;47.13;;;;;;;4.08;100.00;103381.25;5012054;28;20029;-71
2022/01/25 06:28:42;;;;;;;119.90;49.42;;;;;;;3.94;100.00;103374.91;5011947;28;20516;-71
2022/01/25 06:31:08;;;;;;;113.55;47.60;;;;;;;3.93;100.00;103378.66;5011408;28;20041;-71
2022/01/25 06:33:34;;;;;;;113.10;46.95;;;;;;;3.99;100.00;103383.25;5011313;28;20292;-71
2022/01/25 06:35:59;;;;;;;119.75;48.75;;;;;;;3.85;100.00;103381.50;5010923;28;20124;-71
2022/01/25 06:38:27;;;;;;;121.90;49.17;;;;;;;3.87;100.00;103379.44;4992766;28;20044;-70
2022/01/25 06:40:52;;;;;;;122.15;48.83;;;;;;;3.78;100.00;103386.84;5010263;28;20049;-71
2022/01/25 06:43:18;;;;;;;118.97;47.97;;;;;;;3.50;100.00;103388.66;5010889;28;20386;-71
2022/01/25 06:45:46;;;;;;;121.88;47.88;;;;;;;3.48;100.00;103391.56;5011033;28;20042;-71
2022/01/25 06:48:11;;;;;;;123.40;48.90;;;;;;;3.34;100.00;103389.75;4976528;28;20159;-70
2022/01/25 06:50:36;;;;;;;127.60;50.70;;;;;;;3.52;100.00;103386.59;5011638;28;20041;-70
2022/01/25 06:53:02;;;;;;;118.95;48.30;;;;;;;3.42;100.00;103381.53;4994912;28;20054;-71
2022/01/25 06:55:27;;;;;;;124.03;49.92;;;;;;;3.60;100.00;103381.06;5012311;28;20048;-70
2022/01/25 06:57:53;;;;;;;123.38;48.38;;;;;;;3.66;100.00;103379.47;4993656;28;20514;-70
2022/01/25 07:00:21;;;;;;;121.53;49.10;;;;;;;3.67;100.00;103379.28;5011657;28;20038;-71
2022/01/25 07:02:47;;;;;;;122.82;50.35;;;;;;;3.80;100.00;103383.94;5011611;28;20837;-71
2022/01/25 07:05:12;;;;;;;126.05;49.75;;;;;;;3.62;100.00;103385.25;5012079;28;20043;-70
2022/01/25 07:07:39;;;;;;;120.63;49.47;;;;;;;3.56;100.00;103388.72;5012421;28;20548;-70
2022/01/25 07:10:06;;;;;;;115.38;47.63;;;;;;;3.69;100.00;103392.56;5012629;28;20041;-70
2022/01/25 07:12:32;;;;;;;126.68;49.88;;;;;;;3.40;100.00;103399.75;5011514;28;20053;-73
2022/01/25 07:14:58;;;;;;;119.88;48.25;;;;;;;3.28;100.00;103398.63;4993544;28;20152;-71
2022/01/25 07:17:23;;;;;;;120.05;48.78;;;;;;;3.38;100.00;103399.97;5012369;28;20462;-70
2022/01/25 07:19:50;;;;;;;124.72;51.22;;;;;;;3.56;100.00;103399.50;5011676;28;20800;-70
2022/01/25 07:22:16;;;;;;;122.25;48.97;;;;;;;3.47;100.00;103395.28;5011699;28;20124;-71
2022/01/25 07:24:41;;;;;;;123.05;49.13;;;;;;;3.66;100.00;103399.19;5012088;28;20094;-70
2022/01/25 07:27:07;;;;;;;118.93;49.00;;;;;;;3.49;100.00;103387.84;5011603;28;20037;-72
2022/01/25 07:29:32;;;;;;;115.85;47.55;;;;;;;3.56;100.00;103401.38;5012834;28;20065;-72
2022/01/25 07:31:59;;;;;;;125.63;49.53;;;;;;;3.78;100.00;103396.78;4992950;28;20025;-71
2022/01/25 07:34:25;;;;;;;121.40;49.40;;;;;;;3.60;100.00;103403.47;4993120;28;20387;-71
2022/01/25 07:36:50;;;;;;;131.38;51.17;;;;;;;3.30;100.00;103394.69;4992573;28;20096;-71
2022/01/25 07:39:16;;;;;;;131.02;50.03;;;;;;;3.21;100.00;103395.03;5012952;28;20073;-71
2022/01/25 07:41:43;;;;;;;121.65;49.70;;;;;;;3.66;100.00;103403.75;4996549;28;20102;-71
2022/01/25 07:44:09;;;;;;;112.50;47.45;;;;;;;3.54;100.00;103400.72;5015449;28;20056;-71
2022/01/25 07:46:35;;;;;;;123.22;50.20;;;;;;;3.71;100.00;103399.44;5015084;28;20055;-71
2022/01/25 07:49:00;;;;;;;116.82;47.80;;;;;;;3.69;100.00;103409.56;5014914;28;20455;-71
2022/01/25 07:51:28;;;;;;;124.57;50.35;;;;;;;3.69;100.00;103408.75;4996603;28;20468;-73
2022/01/25 07:53:54;;;;;;;122.93;50.65;;;;;;;3.53;100.00;103404.47;5015021;28;20041;-70
2022/01/25 07:56:20;;;;;;;117.13;48.08;;;;;;;3.49;100.00;103409.44;5016020;28;20041;-70
2022/01/25 07:58:46;;;;;;;121.60;48.13;;;;;;;3.22;100.00;103412.88;5015789;28;20093;-70
2022/01/25 08:01:11;;;;;;;117.32;48.05;;;;;;;3.18;100.00;103415.94;5015210;28;20222;-73
2022/01/25 08:03:37;;;;;;;118.68;48.28;;;;;;;3.20;100.00;103409.50;5015644;28;20103;-70
2022/01/25 08:06:03;;;;;;;121.57;48.38;;;;;;;3.29;100.00;103409.22;5015183;28;20098;-73
2022/01/25 08:08:28;;;;;;;124.10;50.45;;;;;;;3.36;100.00;103417.38;5014963;28;20108;-70
2022/01/25 08:10:54;;;;;;;126.55;49.95;;;;;;;3.29;100.00;103413.78;5014785;28;20049;-71
2022/01/25 08:13:19;;;;;;;126.78;51.55;;;;;;;3.66;100.00;103409.13;5014980;28;20046;-70
2022/01/25 08:15:44;;;;;;;122.38;50.75;;;;;;;3.70;100.00;103405.03;5014862;28;20052;-70
2022/01/25 08:18:10;;;;;;;128.82;52.03;;;;;;;3.70;100.00;103410.44;5013885;28;20204;-71
2022/01/25 08:20:35;;;;;;;130.40;50.55;;;;;;;3.98;100.00;103400.47;5013705;28;20100;-71
2022/01/25 08:23:01;;;;;;;117.90;48.85;;;;;;;3.70;100.00;103408.56;5014442;28;20111;-70
2022/01/25 08:25:26;;;;;;;122.75;49.28;;;;;;;3.71;100.00;103412.09;5014327;28;20583;-70
2022/01/25 08:27:52;;;;;;;138.05;50.53;;;;;;;3.62;100.00;103414.94;5013613;28;20037;-70
2022/01/25 08:30:17;;;;;;;124.75;48.92;;;;;;;3.59;100.00;103409.91;5014178;28;20486;-70
2022/01/25 08:32:43;;;;;;;125.35;50.25;;;;;;;3.53;100.00;103410.69;4997106;28;20134;-70
2022/01/25 08:35:09;;;;;;;123.75;48.85;;;;;;;3.78;100.00;103411.13;5015248;28;20038;-70
2022/01/25 08:37:34;;;;;;;123.65;50.20;;;;;;;3.57;100.00;103414.66;5014881;28;20072;-71
2022/01/25 08:40:01;;;;;;;125.40;46.40;;;;;;;3.49;100.00;103417.50;5014124;28;20773;-71
2022/01/25 08:42:27;;;;;;;125.25;49.30;;;;;;;3.73;100.00;103416.28;4996323;28;20441;-70
2022/01/25 08:44:52;;;;;;;117.57;48.58;;;;;;;3.76;100.00;103409.66;5013662;28;20044;-70
2022/01/25 08:47:18;;;;;;;124.00;48.53;;;;;;;3.77;100.00;103417.53;5013763;28;20045;-70
2022/01/25 08:49:43;;;;;;;123.65;49.08;;;;;;;3.90;100.00;103415.97;4995217;28;20068;-70
2022/01/25 08:52:09;;;;;;;121.40;49.13;;;;;;;3.93;100.00;103416.44;5013982;28;20041;-71
2022/01/25 08:54:35;;;;;;;118.90;48.63;;;;;;;3.88;100.00;103413.50;4995646;28;20163;-70
2022/01/25 08:57:01;;;;;;;132.27;51.60;;;;;;;4.00;100.00;103413.78;4995290;28;20340;-71
2022/01/25 08:59:28;;;;;;;126.47;48.92;;;;;;;3.54;100.00;103423.16;5013176;28;20459;-71
2022/01/25 09:01:53;;;;;;;126.47;49.53;;;;;;;3.45;100.00;103421.59;5012905;28;20045;-70
2022/01/25 09:04:19;;;;;;;129.57;48.58;;;;;;;3.46;100.00;103420.59;4994916;28;20403;-70
2022/01/25 09:06:45;;;;;;;127.38;50.88;;;;;;;3.40;100.00;103416.81;5013495;28;20053;-71
2022/01/25 09:09:11;;;;;;;123.20;47.75;;;;;;;3.45;100.00;103427.00;5013885;28;20772;-70
2022/01/25 09:11:38;;;;;;;122.13;49.95;;;;;;;3.62;100.00;103425.72;5014005;28;20414;-70
2022/01/25 09:14:03;;;;;;;113.97;45.08;;;;;;;3.78;100.00;103423.78;5013360;28;20108;-71
2022/01/25 09:16:29;;;;;;;125.97;48.92;;;;;;;3.92;100.00;103425.56;5013908;28;20203;-71
2022/01/25 09:18:54;;;;;;;117.22;46.97;;;;;;;3.70;100.00;103426.63;5013658;28;20034;-71
2022/01/25 09:21:21;;;;;;;124.78;48.22;;;;;;;3.84;100.00;103431.94;5013180;28;20045;-71
2022/01/25 09:23:46;;;;;;;121.93;49.42;;;;;;;4.08;100.00;103441.47;5012343;28;20045;-70
2022/01/25 09:26:12;;;;;;;136.68;50.28;;;;;;;3.75;100.00;103429.56;5011574;28;20041;-71
2022/01/25 09:28:37;;;;;;;121.65;47.80;;;;;;;3.59;100.00;103444.16;5012275;28;20045;-70
2022/01/25 09:31:03;;;;;;;128.63;50.20;;;;;;;3.79;100.00;103439.78;5012955;28;20088;-70
2022/01/25 09:33:29;;;;;;;124.68;49.40;;;;;;;3.63;100.00;103443.56;5013407;28;20045;-70
2022/01/25 09:35:56;;;;;;;125.32;49.30;;;;;;;3.82;100.00;103442.09;4996375;28;20128;-70
2022/01/25 09:38:24;;;;;;;125.28;50.42;;;;;;;3.81;100.00;103450.38;5013467;28;20431;-71
2022/01/25 09:40:50;;;;;;;124.00;49.40;;;;;;;3.94;100.00;103450.50;4995922;28;20042;-70
2022/01/25 09:43:16;;;;;;;124.07;49.53;;;;;;;3.92;100.00;103447.16;5014143;28;20049;-70
2022/01/25 09:45:42;;;;;;;118.28;47.30;;;;;;;4.14;100.00;103444.44;5015167;28;20111;-73
2022/01/25 09:48:08;;;;;;;126.00;49.20;;;;;;;4.05;100.00;103449.97;5021281;28;20060;-70
2022/01/25 09:50:37;;;;;;;113.32;45.70;;;;;;;4.12;100.00;103447.31;5019791;28;20041;-71
2022/01/25 09:53:04;;;;;;;125.43;49.65;;;;;;;4.20;100.00;103443.63;5020486;28;20046;-70
2022/01/25 09:55:33;;;;;;;115.75;47.85;;;;;;;4.25;100.00;103447.41;5017632;28;20038;-71
2022/01/25 09:57:59;;;;;;;126.30;49.28;;;;;;;4.36;100.00;103445.19;5015756;28;20116;-71
2022/01/25 10:00:29;;;;;;;117.50;45.53;;;;;;;4.22;100.00;103452.38;5014734;28;20072;-69
2022/01/25 10:03:11;;;;;;;122.05;46.80;;;;;;;4.30;100.00;103449.50;4996744;28;20564;-70
2022/01/25 10:05:41;;;;;;;115.15;47.20;;;;;;;4.16;100.00;103455.84;5015547;28;20111;-70
2022/01/25 10:08:09;;;;;;;117.53;47.60;;;;;;;4.27;100.00;103456.13;4997086;28;20046;-71
2022/01/25 10:10:38;;;;;;;121.32;47.67;;;;;;;4.37;100.00;103455.81;5013180;28;20059;-72
2022/01/25 10:13:15;;;;;;;112.20;47.28;;;;;;;4.29;100.00;103453.25;4995754;28;20428;-71
2022/01/25 10:15:41;;;;;;;117.38;48.60;;;;;;;4.30;100.00;103450.38;5014048;28;20345;-72
2022/01/25 10:18:06;;;;;;;117.88;47.80;;;;;;;4.26;100.00;103448.25;5016264;28;20045;-71
2022/01/25 10:20:36;;;;;;;118.88;49.35;;;;;;;4.53;100.00;103452.78;5015152;28;20144;-71
2022/01/25 10:23:19;;;;;;;111.53;47.35;;;;;;;4.46;100.00;103446.50;5014718;28;20049;-72
2022/01/25 10:25:47;;;;;;;117.00;46.15;;;;;;;4.30;100.00;103449.50;4995232;28;20041;-71
2022/01/25 10:28:14;;;;;;;110.75;46.15;;;;;;;4.21;100.00;103456.09;5013381;28;20070;-72
2022/01/25 10:30:44;;;;;;;104.05;43.60;;;;;;;4.13;100.00;103450.84;5013337;28;20072;-72
2022/01/25 10:33:33;;;;;;;100.32;42.92;;;;;;;4.01;100.00;103456.78;4995149;28;20146;-72
2022/01/25 10:36:18;;;;;;;109.15;43.90;;;;;;;4.39;100.00;103459.13;5013813;28;20048;-71
2022/01/25 10:38:46;;;;;;;105.93;44.00;;;;;;;4.41;100.00;103450.84;4994570;28;20053;-70
2022/01/25 10:41:20;;;;;;;108.13;45.72;;;;;;;4.57;100.00;103452.38;5012006;28;20359;-71
2022/01/25 10:43:49;;;;;;;112.15;45.08;;;;;;;4.58;100.00;103445.97;4993596;28;20079;-72
2022/01/25 10:46:27;;;;;;;106.78;43.47;;;;;;;4.32;100.00;103447.47;5011938;28;20044;-72
2022/01/25 10:49:03;;;;;;;110.15;45.92;;;;;;;4.25;100.00;103455.53;4995212;28;20049;-71
2022/01/25 10:51:38;;;;;;;110.93;44.42;;;;;;;4.57;100.00;103455.94;5012910;28;20453;-72
2022/01/25 10:54:13;;;;;;;108.63;43.88;;;;;;;4.00;100.00;103449.72;5012629;28;20042;-71
2022/01/25 10:56:48;;;;;;;106.93;44.78;;;;;;;4.00;100.00;103457.81;5011682;28;20053;-72
2022/01/25 10:59:23;;;;;;;107.78;45.00;;;;;;;4.01;100.00;103464.88;5011592;28;20041;-72
2022/01/25 11:01:59;;;;;;;114.93;46.45;;;;;;;4.20;100.00;103457.97;5011505;28;20448;-72
2022/01/25 11:04:29;;;;;;;107.78;43.72;;;;;;;4.14;100.00;103461.47;5012058;28;20156;-72
2022/01/25 11:06:58;;;;;;;110.65;44.97;;;;;;;4.04;100.00;103461.81;5011685;28;20080;-72
2022/01/25 11:09:26;;;;;;;120.35;46.35;;;;;;;3.89;100.00;103468.31;5010812;28;20045;-71
2022/01/25 11:11:55;;;;;;;106.88;44.50;;;;;;;3.99;100.00;103464.25;5011800;28;20317;-71
2022/01/25 11:17:05;;;;;;;104.85;42.88;;;;;;;4.05;100.00;103474.28;5014762;28;20562;-72
2022/01/25 11:19:31;;;;;;;105.43;43.10;;;;;;;4.09;100.00;103470.13;5015202;28;20592;-71
2022/01/25 11:21:59;;;;;;;103.60;42.45;;;;;;;4.06;100.00;103469.69;5015967;28;20045;-72
2022/01/25 11:24:26;;;;;;;104.22;43.47;;;;;;;3.75;100.00;103470.91;4997459;28;20056;-72
2022/01/25 11:26:53;;;;;;;102.65;41.92;;;;;;;3.69;100.00;103468.94;5015139;28;20534;-71
2022/01/25 11:29:19;;;;;;;108.30;43.08;;;;;;;3.81;100.00;103471.97;5014334;28;20494;-71
2022/01/25 11:31:49;;;;;;;108.22;42.92;;;;;;;3.88;100.00;103467.47;5014953;28;20049;-72
2022/01/25 11:34:17;;;;;;;104.25;42.55;;;;;;;3.84;100.00;103463.50;5015217;28;20357;-71
2022/01/25 11:36:43;;;;;;;111.22;43.53;;;;;;;3.75;100.00;103467.34;5015606;28;20044;-72
2022/01/25 11:39:11;;;;;;;103.43;42.85;;;;;;;3.73;100.00;103464.03;5014508;28;20077;-70
2022/01/25 11:41:40;;;;;;;117.22;44.80;;;;;;;3.56;100.00;103458.88;4996959;28;20516;-71
2022/01/25 11:44:15;;;;;;;109.15;42.33;;;;;;;3.81;100.00;103462.03;5015242;28;20149;-72
2022/01/25 11:46:45;;;;;;;107.35;41.60;;;;;;;3.83;100.00;103453.72;5015623;28;20293;-72
2022/01/25 11:49:15;;;;;;;107.78;43.13;;;;;;;4.23;100.00;103451.34;5015393;28;20478;-72
2022/01/25 11:51:40;;;;;;;108.22;42.95;;;;;;;4.47;100.00;103445.47;5015498;28;20049;-72
2022/01/25 11:54:08;;;;;;;107.10;42.63;;;;;;;4.24;100.00;103444.91;5015446;28;20246;-71
2022/01/25 11:56:39;;;;;;;102.50;42.70;;;;;;;4.14;100.00;103444.44;5014879;28;20409;-72
2022/01/25 11:59:05;;;;;;;106.20;41.67;;;;;;;4.04;100.00;103440.22;5015221;28;20121;-71
2022/01/25 12:01:33;;;;;;;103.95;41.03;;;;;;;4.05;100.00;103439.16;5014237;28;20442;-72
2022/01/25 12:04:02;;;;;;;101.93;41.05;;;;;;;4.01;100.00;103435.16;5014251;28;20045;-72
2022/01/25 12:06:37;;;;;;;98.70;42.15;;;;;;;3.88;100.00;103432.38;4996684;28;20547;-71
2022/01/25 12:11:49;;;;;;;113.22;43.50;;;;;;;3.58;100.00;103426.31;5015400;28;20049;-71
2022/01/25 12:14:24;;;;;;;101.32;40.42;;;;;;;3.83;100.00;103424.84;4997276;28;20045;-71
2022/01/25 12:16:56;;;;;;;105.90;41.30;;;;;;;3.73;100.00;103420.84;5014717;28;20531;-71
2022/01/25 12:19:41;;;;;;;110.43;43.42;;;;;;;4.09;100.00;103423.41;4996390;28;20400;-72
2022/01/25 12:22:12;;;;;;;106.75;41.95;;;;;;;3.94;100.00;103422.66;5014642;28;20380;-72
2022/01/25 12:24:46;;;;;;;116.82;45.28;;;;;;;3.86;100.00;103421.75;5013790;28;20077;-71
2022/01/25 12:27:34;;;;;;;112.80;43.53;;;;;;;3.87;100.00;103417.22;5014245;28;20045;-71
2022/01/25 12:30:08;;;;;;;104.45;41.95;;;;;;;3.70;100.00;103415.84;5014441;28;20119;-71
2022/01/25 12:32:37;;;;;;;109.40;43.50;;;;;;;3.88;100.00;103418.88;4995855;28;20043;-72
2022/01/25 12:35:07;;;;;;;107.50;43.22;;;;;;;4.08;100.00;103409.06;4995945;28;20148;-72
2022/01/25 12:37:55;;;;;;;109.15;42.60;;;;;;;3.80;100.00;103405.53;5014658;28;20424;-72
2022/01/25 12:40:24;;;;;;;111.35;43.65;;;;;;;4.30;100.00;103395.50;4997319;28;20540;-72
2022/01/25 12:42:50;;;;;;;104.88;41.35;;;;;;;4.41;100.00;103400.34;5015173;28;20486;-72
2022/01/25 12:45:21;;;;;;;102.57;41.20;;;;;;;4.34;100.00;103402.19;5014634;28;20041;-71
2022/01/25 12:48:09;;;;;;;100.40;38.92;;;;;;;4.37;100.00;103395.56;5014217;28;20041;-71
2022/01/25 12:50:38;;;;;;;104.60;42.53;;;;;;;4.53;100.00;103400.59;5014110;28;20558;-71